createdAt,value
2022-08-04T00:03:06.741Z,26.062
2022-08-04T00:06:51.281Z,26.062
2022-08-04T00:10:41.380Z,26.062
2022-08-04T00:14:51.026Z,26.062
2022-08-04T00:18:31.194Z,26.062
2022-08-04T00:22:11.017Z,26.062
2022-08-04T00:26:02.329Z,26.062
2022-08-04T00:29:41.886Z,26.062
2022-08-04T00:34:08.834Z,26.062
2022-08-04T00:37:49.569Z,26.0
2022-08-04T00:41:31.001Z,26.0
2022-08-04T00:46:43.105Z,26.0
2022-08-04T00:50:22.918Z,26.062
2022-08-04T00:54:38.338Z,26.062
2022-08-04T00:58:23.250Z,26.062
2022-08-04T01:03:05.915Z,26.062
2022-08-04T01:06:56.050Z,26.062
2022-08-04T01:10:49.424Z,26.125
2022-08-04T01:15:02.986Z,26.125
2022-08-04T01:18:59.221Z,26.125
2022-08-04T01:22:38.939Z,26.125
2022-08-04T01:27:20.676Z,26.125
2022-08-04T01:31:44.870Z,26.125
2022-08-04T01:36:25.891Z,26.125
2022-08-04T01:40:13.192Z,26.125
2022-08-04T01:44:24.120Z,26.125
2022-08-04T01:48:04.490Z,26.125
2022-08-04T01:51:44.240Z,26.125
2022-08-04T01:55:54.929Z,26.125
2022-08-04T02:03:08.157Z,26.125
2022-08-04T02:07:54.950Z,26.125
2022-08-04T02:11:46.335Z,26.125
2022-08-04T02:15:25.963Z,26.125
2022-08-04T02:19:08.704Z,26.125
2022-08-04T02:23:06.291Z,26.125
2022-08-04T02:26:56.726Z,26.125
2022-08-04T02:31:01.672Z,26.125
2022-08-04T02:34:41.690Z,26.125
2022-08-04T02:38:25.543Z,26.125
2022-08-04T02:42:23.836Z,26.125
2022-08-04T02:46:49.856Z,26.125
2022-08-04T02:51:35.089Z,26.125
2022-08-04T02:55:22.277Z,26.125
2022-08-04T02:59:05.015Z,26.125
2022-08-04T03:03:27.888Z,26.125
2022-08-04T03:07:52.152Z,26.125
2022-08-04T03:11:35.985Z,26.125
2022-08-04T03:15:28.524Z,26.125
2022-08-04T03:19:32.735Z,26.125
2022-08-04T03:23:43.722Z,26.062
2022-08-04T03:27:42.842Z,26.062
2022-08-04T03:31:28.497Z,26.062
2022-08-04T03:35:08.322Z,26.062
2022-08-04T03:39:12.073Z,26.062
2022-08-04T03:44:31.182Z,26.062
2022-08-04T03:48:25.398Z,26.062
2022-08-04T03:52:24.646Z,26.062
2022-08-04T03:56:04.392Z,26.0
2022-08-04T03:59:53.649Z,26.0
2022-08-04T04:03:54.352Z,26.0
2022-08-04T04:10:34.418Z,26.0
2022-08-04T04:14:36.857Z,26.0
2022-08-04T04:18:21.866Z,26.0
2022-08-04T04:22:01.871Z,26.0
2022-08-04T04:25:57.004Z,26.0
2022-08-04T04:30:31.938Z,26.0
2022-08-04T04:34:11.863Z,26.0
2022-08-04T04:37:52.166Z,26.0
2022-08-04T04:41:32.957Z,26.0
2022-08-04T04:45:42.914Z,26.0
2022-08-04T04:50:00.454Z,26.0
2022-08-04T04:53:40.193Z,26.0
2022-08-04T04:57:53.186Z,26.0
2022-08-04T05:03:08.955Z,26.0
2022-08-04T05:06:54.333Z,26.062
2022-08-04T05:11:22.596Z,26.062
2022-08-04T05:17:33.050Z,26.062
2022-08-04T05:21:15.792Z,26.062
2022-08-04T05:25:06.975Z,26.062
2022-08-04T05:28:55.027Z,26.125
2022-08-04T05:32:36.444Z,26.125
2022-08-04T05:37:24.113Z,26.125
2022-08-04T05:41:16.597Z,26.25
2022-08-04T05:45:22.969Z,26.312
2022-08-04T05:49:22.219Z,26.375
2022-08-04T05:53:08.319Z,26.375
2022-08-04T05:57:30.943Z,26.437
2022-08-04T06:03:48.721Z,26.437
2022-08-04T06:07:28.540Z,26.5
2022-08-04T06:12:22.561Z,26.562
2022-08-04T06:16:57.077Z,26.625
2022-08-04T06:23:57.645Z,26.687
2022-08-04T06:27:45.960Z,26.75
2022-08-04T06:33:25.069Z,26.75
2022-08-04T06:37:41.246Z,26.75
2022-08-04T06:42:46.890Z,26.75
2022-08-04T06:46:37.289Z,26.75
2022-08-04T06:52:30.041Z,26.75
2022-08-04T06:56:12.574Z,26.75
2022-08-04T06:59:55.651Z,26.812
2022-08-04T07:03:08.976Z,26.812
2022-08-04T07:07:03.384Z,26.812
2022-08-04T07:11:00.205Z,26.812
2022-08-04T07:14:44.029Z,26.875
2022-08-04T07:18:29.751Z,26.875
2022-08-04T07:23:08.469Z,26.875
2022-08-04T07:28:09.828Z,26.812
2022-08-04T07:32:15.942Z,26.812
2022-08-04T07:37:23.457Z,26.75
2022-08-04T07:42:22.422Z,26.75
2022-08-04T07:46:02.473Z,26.75
2022-08-04T07:50:38.481Z,26.75
2022-08-04T07:55:24.950Z,26.75
2022-08-04T07:59:33.592Z,26.812
2022-08-04T08:03:05.206Z,26.875
2022-08-04T08:07:26.305Z,26.937
2022-08-04T08:11:19.921Z,27.0
2022-08-04T08:16:27.010Z,27.062
2022-08-04T08:20:50.597Z,27.062
2022-08-04T08:25:01.530Z,27.125
2022-08-04T08:28:45.184Z,27.125
2022-08-04T08:32:51.848Z,27.125
2022-08-04T08:36:42.895Z,27.125
2022-08-04T08:40:32.358Z,27.187
2022-08-04T08:45:38.730Z,27.187
2022-08-04T08:50:47.127Z,27.187
2022-08-04T08:54:54.067Z,27.187
2022-08-04T08:58:49.202Z,27.187
2022-08-04T09:03:31.365Z,27.187
2022-08-04T09:07:24.822Z,27.187
2022-08-04T09:11:10.472Z,27.125
2022-08-04T09:14:57.470Z,27.125
2022-08-04T09:18:43.080Z,27.125
2022-08-04T09:22:38.868Z,27.125
2022-08-04T09:26:28.194Z,27.125
2022-08-04T09:30:40.363Z,27.187
2022-08-04T09:35:42.431Z,27.187
2022-08-04T09:39:36.053Z,27.187
2022-08-04T09:46:12.085Z,27.25
2022-08-04T09:50:05.866Z,27.25
2022-08-04T09:53:51.358Z,27.25
2022-08-04T09:57:49.295Z,27.312
2022-08-04T10:03:40.863Z,27.312
2022-08-04T10:07:22.645Z,27.375
2022-08-04T10:11:11.098Z,27.375
2022-08-04T10:14:55.032Z,27.312
2022-08-04T10:18:41.193Z,27.375
2022-08-04T10:23:55.852Z,27.437
2022-08-04T10:28:43.806Z,27.5
2022-08-04T10:32:27.359Z,27.562
2022-08-04T10:36:12.734Z,27.562
2022-08-04T10:40:36.791Z,27.562
2022-08-04T10:44:17.649Z,27.562
2022-08-04T10:48:02.105Z,27.5
2022-08-04T10:52:30.853Z,27.5
2022-08-04T10:56:56.465Z,27.437
2022-08-04T11:03:57.751Z,27.375
2022-08-04T11:07:40.583Z,27.375
2022-08-04T11:11:20.199Z,27.312
2022-08-04T11:15:33.022Z,27.312
2022-08-04T11:19:13.620Z,27.25
2022-08-04T11:23:35.297Z,27.125
2022-08-04T11:27:26.121Z,27.125
2022-08-04T11:31:09.738Z,27.062
2022-08-04T11:34:52.637Z,27.062
2022-08-04T11:38:37.886Z,27.0
2022-08-04T11:42:42.439Z,27.0
2022-08-04T11:47:01.791Z,26.937
2022-08-04T11:50:49.248Z,26.875
2022-08-04T11:54:35.761Z,26.875
2022-08-04T11:59:39.230Z,26.875
2022-08-04T12:03:14.327Z,26.937
2022-08-04T12:08:13.927Z,26.937
2022-08-04T12:12:22.944Z,26.937
2022-08-04T12:16:04.124Z,26.937
2022-08-04T12:21:01.914Z,27.0
2022-08-04T12:25:01.602Z,27.0
2022-08-04T12:29:08.625Z,27.062
2022-08-04T12:34:50.605Z,27.062
2022-08-04T12:39:08.439Z,27.125
2022-08-04T12:43:44.863Z,27.125
2022-08-04T12:48:19.062Z,27.125
2022-08-04T12:53:32.554Z,27.187
2022-08-04T12:57:41.758Z,27.25
2022-08-04T13:04:02.257Z,27.312
2022-08-04T13:08:04.727Z,27.375
2022-08-04T13:12:04.298Z,27.375
2022-08-04T13:16:40.960Z,27.375
2022-08-04T13:20:53.637Z,27.437
2022-08-04T13:28:42.825Z,27.437
2022-08-04T13:33:28.814Z,27.437
2022-08-04T13:37:59.377Z,27.5
2022-08-04T13:42:01.534Z,27.562
2022-08-04T13:47:17.355Z,27.562
2022-08-04T13:52:54.409Z,27.625
2022-08-04T13:56:49.405Z,27.687
2022-08-04T14:04:15.162Z,27.687
2022-08-04T14:08:57.923Z,27.75
2022-08-04T14:14:30.663Z,27.75
2022-08-04T14:18:59.469Z,27.75
2022-08-04T14:22:47.076Z,27.75
2022-08-04T14:26:39.207Z,27.75
2022-08-04T14:31:16.659Z,27.812
2022-08-04T14:37:17.820Z,27.812
2022-08-04T14:42:05.394Z,27.812
2022-08-04T14:46:15.054Z,27.812
2022-08-04T14:50:30.367Z,27.875
2022-08-04T14:54:31.719Z,27.875
2022-08-04T14:59:27.830Z,27.875
2022-08-04T15:03:25.024Z,27.875
2022-08-04T15:08:05.635Z,27.875
2022-08-04T15:12:05.234Z,27.875
2022-08-04T15:16:54.025Z,27.812
2022-08-04T15:20:44.582Z,27.812
2022-08-04T15:24:28.660Z,27.812
2022-08-04T15:28:10.212Z,27.75
2022-08-04T15:33:30.781Z,27.75
2022-08-04T15:37:35.084Z,27.812
2022-08-04T15:41:27.082Z,27.812
2022-08-04T15:46:37.291Z,27.812
2022-08-04T15:50:55.133Z,27.812
2022-08-04T15:56:05.021Z,27.75
2022-08-04T16:04:21.351Z,27.75
2022-08-04T16:08:39.333Z,27.75
2022-08-04T16:13:36.333Z,27.75
2022-08-04T16:17:17.139Z,27.75
2022-08-04T16:21:23.999Z,27.812
2022-08-04T16:25:55.709Z,27.812
2022-08-04T16:29:45.461Z,27.812
2022-08-04T16:33:25.507Z,27.812
2022-08-04T16:38:47.223Z,27.75
2022-08-04T16:42:48.545Z,27.687
2022-08-04T16:47:08.130Z,27.687
2022-08-04T16:51:13.522Z,27.625
2022-08-04T16:55:45.556Z,27.625
2022-08-04T16:59:43.176Z,27.562
2022-08-04T17:03:25.720Z,27.562
2022-08-04T17:07:30.234Z,27.562
2022-08-04T17:11:24.218Z,27.5
2022-08-04T17:15:57.726Z,27.5
2022-08-04T17:20:14.706Z,27.5
2022-08-04T17:24:54.763Z,27.5
2022-08-04T17:30:36.245Z,27.5
2022-08-04T17:34:54.169Z,27.5
2022-08-04T17:39:38.239Z,27.5
2022-08-04T17:44:38.330Z,27.5
2022-08-04T18:04:29.176Z,27.5
2022-08-04T18:12:42.050Z,27.437
2022-08-04T21:04:00.827Z,27.187
2022-08-04T21:08:10.157Z,27.187
2022-08-04T21:13:00.742Z,27.187
2022-08-04T22:04:33.077Z,27.0
2022-08-04T22:08:59.410Z,27.0
2022-08-04T22:27:38.724Z,26.937
2022-08-04T22:32:37.619Z,26.937
2022-08-04T22:38:48.582Z,26.875
2022-08-04T22:44:16.186Z,26.875
2022-08-04T22:48:44.576Z,26.875
2022-08-04T22:53:48.586Z,26.875
2022-08-04T22:59:05.535Z,26.812
2022-08-04T23:04:34.472Z,26.812
2022-08-04T23:09:15.920Z,26.812
2022-08-04T23:14:13.695Z,26.812
2022-08-04T23:18:27.630Z,26.812
2022-08-04T23:23:16.569Z,26.812
2022-08-04T23:28:18.425Z,26.75
2022-08-04T23:32:52.341Z,26.75
2022-08-04T23:37:03.135Z,26.75
2022-08-04T23:42:53.253Z,26.75
2022-08-04T23:49:05.970Z,26.75
2022-08-04T23:53:22.661Z,26.75
2022-08-04T23:58:39.802Z,26.687
